sensor_id;sensor_type;location;lat;lon;timestamp;temperature;humidity
15099;DHT22;33900;53.640;9.942;2022-08-07T00:00:11;17.00;78.00
15099;DHT22;33900;53.640;9.942;2022-08-07T00:02:40;17.00;78.10
15099;DHT22;33900;53.640;9.942;2022-08-07T00:05:05;17.00;78.10
15099;DHT22;33900;53.640;9.942;2022-08-07T00:07:31;17.00;78.20
15099;DHT22;33900;53.640;9.942;2022-08-07T00:09:56;16.90;78.10
15099;DHT22;33900;53.640;9.942;2022-08-07T00:12:22;16.90;78.20
15099;DHT22;33900;53.640;9.942;2022-08-07T00:14:48;16.90;78.40
15099;DHT22;33900;53.640;9.942;2022-08-07T00:17:13;16.90;78.60
15099;DHT22;33900;53.640;9.942;2022-08-07T00:19:40;16.90;78.60
15099;DHT22;33900;53.640;9.942;2022-08-07T00:22:05;16.90;78.70
15099;DHT22;33900;53.640;9.942;2022-08-07T00:24:31;16.80;78.80
15099;DHT22;33900;53.640;9.942;2022-08-07T00:26:59;16.80;79.00
15099;DHT22;33900;53.640;9.942;2022-08-07T00:29:25;16.80;79.30
15099;DHT22;33900;53.640;9.942;2022-08-07T00:31:53;16.80;79.40
15099;DHT22;33900;53.640;9.942;2022-08-07T00:34:19;16.80;79.60
15099;DHT22;33900;53.640;9.942;2022-08-07T00:36:45;16.80;79.50
15099;DHT22;33900;53.640;9.942;2022-08-07T00:39:11;16.80;79.40
15099;DHT22;33900;53.640;9.942;2022-08-07T00:41:36;16.80;79.30
15099;DHT22;33900;53.640;9.942;2022-08-07T00:44:03;16.70;79.30
15099;DHT22;33900;53.640;9.942;2022-08-07T00:46:32;16.70;79.40
15099;DHT22;33900;53.640;9.942;2022-08-07T00:48:57;16.70;79.60
15099;DHT22;33900;53.640;9.942;2022-08-07T00:51:30;16.70;79.80
15099;DHT22;33900;53.640;9.942;2022-08-07T00:53:55;16.60;79.70
15099;DHT22;33900;53.640;9.942;2022-08-07T00:56:23;16.60;79.90
15099;DHT22;33900;53.640;9.942;2022-08-07T00:58:48;16.60;80.00
15099;DHT22;33900;53.640;9.942;2022-08-07T01:01:15;16.60;80.00
15099;DHT22;33900;53.640;9.942;2022-08-07T01:03:40;16.50;80.00
15099;DHT22;33900;53.640;9.942;2022-08-07T01:06:07;16.50;80.10
15099;DHT22;33900;53.640;9.942;2022-08-07T01:08:32;16.50;80.00
15099;DHT22;33900;53.640;9.942;2022-08-07T01:10:58;16.50;80.10
15099;DHT22;33900;53.640;9.942;2022-08-07T01:13:24;16.50;80.00
15099;DHT22;33900;53.640;9.942;2022-08-07T01:15:50;16.50;80.10
15099;DHT22;33900;53.640;9.942;2022-08-07T01:18:16;16.40;80.10
15099;DHT22;33900;53.640;9.942;2022-08-07T01:20:47;16.40;80.30
15099;DHT22;33900;53.640;9.942;2022-08-07T01:23:14;16.40;80.20
15099;DHT22;33900;53.640;9.942;2022-08-07T01:25:41;16.40;80.50
15099;DHT22;33900;53.640;9.942;2022-08-07T01:28:07;16.30;80.50
15099;DHT22;33900;53.640;9.942;2022-08-07T01:30:33;16.30;80.50
15099;DHT22;33900;53.640;9.942;2022-08-07T01:33:01;16.30;80.70
15099;DHT22;33900;53.640;9.942;2022-08-07T01:35:28;16.30;80.80
15099;DHT22;33900;53.640;9.942;2022-08-07T01:37:55;16.30;81.00
15099;DHT22;33900;53.640;9.942;2022-08-07T01:40:21;16.30;81.00
15099;DHT22;33900;53.640;9.942;2022-08-07T01:42:54;16.30;81.20
15099;DHT22;33900;53.640;9.942;2022-08-07T01:45:20;16.20;81.10
15099;DHT22;33900;53.640;9.942;2022-08-07T01:47:50;16.20;81.90
15099;DHT22;33900;53.640;9.942;2022-08-07T01:50:17;16.20;81.00
15099;DHT22;33900;53.640;9.942;2022-08-07T01:52:43;16.20;81.20
15099;DHT22;33900;53.640;9.942;2022-08-07T01:55:09;16.20;81.30
15099;DHT22;33900;53.640;9.942;2022-08-07T01:57:38;16.20;81.40
15099;DHT22;33900;53.640;9.942;2022-08-07T02:00:07;16.20;81.50
15099;DHT22;33900;53.640;9.942;2022-08-07T02:02:43;16.20;81.40
15099;DHT22;33900;53.640;9.942;2022-08-07T02:05:16;16.10;81.30
15099;DHT22;33900;53.640;9.942;2022-08-07T02:07:47;16.10;81.30
15099;DHT22;33900;53.640;9.942;2022-08-07T02:10:16;16.10;81.30
15099;DHT22;33900;53.640;9.942;2022-08-07T02:12:42;16.10;81.30
15099;DHT22;33900;53.640;9.942;2022-08-07T02:15:15;16.00;81.40
15099;DHT22;33900;53.640;9.942;2022-08-07T02:17:45;16.00;81.50
15099;DHT22;33900;53.640;9.942;2022-08-07T02:20:13;16.00;81.60
15099;DHT22;33900;53.640;9.942;2022-08-07T02:22:40;16.00;81.50
15099;DHT22;33900;53.640;9.942;2022-08-07T02:25:07;16.00;81.40
15099;DHT22;33900;53.640;9.942;2022-08-07T02:27:33;16.00;81.40
15099;DHT22;33900;53.640;9.942;2022-08-07T02:30:00;16.00;81.30
15099;DHT22;33900;53.640;9.942;2022-08-07T02:32:32;16.00;81.40
15099;DHT22;33900;53.640;9.942;2022-08-07T02:34:57;16.00;81.40
15099;DHT22;33900;53.640;9.942;2022-08-07T02:37:26;15.90;81.30
15099;DHT22;33900;53.640;9.942;2022-08-07T02:39:52;15.90;81.10
15099;DHT22;33900;53.640;9.942;2022-08-07T02:42:19;15.90;81.20
15099;DHT22;33900;53.640;9.942;2022-08-07T02:44:48;15.90;81.30
15099;DHT22;33900;53.640;9.942;2022-08-07T02:47:16;15.80;81.30
15099;DHT22;33900;53.640;9.942;2022-08-07T02:49:43;15.80;81.50
15099;DHT22;33900;53.640;9.942;2022-08-07T02:52:10;15.80;81.50
15099;DHT22;33900;53.640;9.942;2022-08-07T02:54:36;15.80;81.50
15099;DHT22;33900;53.640;9.942;2022-08-07T02:57:05;15.80;81.20
15099;DHT22;33900;53.640;9.942;2022-08-07T02:59:32;15.80;81.20
15099;DHT22;33900;53.640;9.942;2022-08-07T03:02:01;15.80;81.30
15099;DHT22;33900;53.640;9.942;2022-08-07T03:04:29;15.80;81.30
15099;DHT22;33900;53.640;9.942;2022-08-07T03:06:55;15.80;81.10
15099;DHT22;33900;53.640;9.942;2022-08-07T03:09:24;15.70;81.10
15099;DHT22;33900;53.640;9.942;2022-08-07T03:11:50;15.70;81.00
15099;DHT22;33900;53.640;9.942;2022-08-07T03:14:16;15.60;81.10
15099;DHT22;33900;53.640;9.942;2022-08-07T03:16:42;15.60;81.30
15099;DHT22;33900;53.640;9.942;2022-08-07T03:19:09;15.60;81.20
15099;DHT22;33900;53.640;9.942;2022-08-07T03:21:35;15.50;81.20
15099;DHT22;33900;53.640;9.942;2022-08-07T03:24:01;15.50;81.30
15099;DHT22;33900;53.640;9.942;2022-08-07T03:26:30;15.50;81.40
15099;DHT22;33900;53.640;9.942;2022-08-07T03:28:59;15.40;81.40
15099;DHT22;33900;53.640;9.942;2022-08-07T03:31:25;15.40;81.60
15099;DHT22;33900;53.640;9.942;2022-08-07T03:33:56;15.40;81.80
15099;DHT22;33900;53.640;9.942;2022-08-07T03:36:23;15.40;81.90
15099;DHT22;33900;53.640;9.942;2022-08-07T03:38:49;15.40;82.10
15099;DHT22;33900;53.640;9.942;2022-08-07T03:41:16;15.40;82.20
15099;DHT22;33900;53.640;9.942;2022-08-07T03:43:41;15.40;82.20
15099;DHT22;33900;53.640;9.942;2022-08-07T03:46:07;15.40;82.30
15099;DHT22;33900;53.640;9.942;2022-08-07T03:48:34;15.40;82.30
15099;DHT22;33900;53.640;9.942;2022-08-07T03:51:01;15.40;82.40
15099;DHT22;33900;53.640;9.942;2022-08-07T03:53:35;15.30;82.50
15099;DHT22;33900;53.640;9.942;2022-08-07T03:56:01;15.30;82.50
15099;DHT22;33900;53.640;9.942;2022-08-07T03:58:28;15.30;82.50
15099;DHT22;33900;53.640;9.942;2022-08-07T04:00:55;15.30;82.50
15099;DHT22;33900;53.640;9.942;2022-08-07T04:03:21;15.30;82.60
15099;DHT22;33900;53.640;9.942;2022-08-07T04:05:50;15.30;82.90
15099;DHT22;33900;53.640;9.942;2022-08-07T04:08:19;15.30;83.10
15099;DHT22;33900;53.640;9.942;2022-08-07T04:10:46;15.30;83.10
15099;DHT22;33900;53.640;9.942;2022-08-07T04:13:15;15.30;83.10
15099;DHT22;33900;53.640;9.942;2022-08-07T04:15:42;15.30;83.10
15099;DHT22;33900;53.640;9.942;2022-08-07T04:18:10;15.30;83.10
15099;DHT22;33900;53.640;9.942;2022-08-07T04:20:36;15.30;83.10
15099;DHT22;33900;53.640;9.942;2022-08-07T04:23:01;15.30;83.10
15099;DHT22;33900;53.640;9.942;2022-08-07T04:25:33;15.30;82.90
15099;DHT22;33900;53.640;9.942;2022-08-07T04:27:59;15.30;83.10
15099;DHT22;33900;53.640;9.942;2022-08-07T04:30:27;15.30;83.20
15099;DHT22;33900;53.640;9.942;2022-08-07T04:32:58;15.30;83.10
15099;DHT22;33900;53.640;9.942;2022-08-07T04:35:28;15.30;83.40
15099;DHT22;33900;53.640;9.942;2022-08-07T04:37:54;15.30;83.40
15099;DHT22;33900;53.640;9.942;2022-08-07T04:40:21;15.30;83.60
15099;DHT22;33900;53.640;9.942;2022-08-07T04:42:47;15.30;83.60
15099;DHT22;33900;53.640;9.942;2022-08-07T04:45:13;15.30;83.60
15099;DHT22;33900;53.640;9.942;2022-08-07T04:50:52;15.30;83.80
15099;DHT22;33900;53.640;9.942;2022-08-07T04:53:07;15.40;84.10
15099;DHT22;33900;53.640;9.942;2022-08-07T04:55:41;15.40;84.40
15099;DHT22;33900;53.640;9.942;2022-08-07T05:01:02;15.50;84.60
15099;DHT22;33900;53.640;9.942;2022-08-07T05:03:38;15.50;84.70
15099;DHT22;33900;53.640;9.942;2022-08-07T05:06:06;15.50;84.80
15099;DHT22;33900;53.640;9.942;2022-08-07T05:13:36;15.60;85.40
15099;DHT22;33900;53.640;9.942;2022-08-07T05:16:08;15.60;85.40
15099;DHT22;33900;53.640;9.942;2022-08-07T05:18:35;15.60;85.40
15099;DHT22;33900;53.640;9.942;2022-08-07T05:21:05;15.70;85.50
15099;DHT22;33900;53.640;9.942;2022-08-07T05:26:01;15.80;86.70
15099;DHT22;33900;53.640;9.942;2022-08-07T05:28:28;15.80;86.00
15099;DHT22;33900;53.640;9.942;2022-08-07T05:30:55;15.90;86.20
15099;DHT22;33900;53.640;9.942;2022-08-07T05:33:21;15.90;86.30
15099;DHT22;33900;53.640;9.942;2022-08-07T05:35:48;16.00;86.50
15099;DHT22;33900;53.640;9.942;2022-08-07T05:38:16;16.10;86.60
15099;DHT22;33900;53.640;9.942;2022-08-07T05:40:42;16.10;86.70
15099;DHT22;33900;53.640;9.942;2022-08-07T05:43:08;16.20;86.80
15099;DHT22;33900;53.640;9.942;2022-08-07T05:45:33;16.20;86.80
15099;DHT22;33900;53.640;9.942;2022-08-07T05:48:02;16.30;86.90
15099;DHT22;33900;53.640;9.942;2022-08-07T05:50:42;16.40;87.00
15099;DHT22;33900;53.640;9.942;2022-08-07T05:53:09;16.40;87.00
15099;DHT22;33900;53.640;9.942;2022-08-07T05:55:35;16.50;87.10
15099;DHT22;33900;53.640;9.942;2022-08-07T05:58:01;16.60;87.00
15099;DHT22;33900;53.640;9.942;2022-08-07T06:00:28;16.70;87.10
15099;DHT22;33900;53.640;9.942;2022-08-07T06:02:59;16.70;87.10
15099;DHT22;33900;53.640;9.942;2022-08-07T06:05:26;16.80;87.10
15099;DHT22;33900;53.640;9.942;2022-08-07T06:07:56;16.90;87.10
15099;DHT22;33900;53.640;9.942;2022-08-07T06:10:23;16.90;86.80
15099;DHT22;33900;53.640;9.942;2022-08-07T06:12:49;17.00;86.60
15099;DHT22;33900;53.640;9.942;2022-08-07T06:15:15;17.10;86.40
15099;DHT22;33900;53.640;9.942;2022-08-07T06:17:42;17.20;86.20
15099;DHT22;33900;53.640;9.942;2022-08-07T06:20:08;17.30;86.00
15099;DHT22;33900;53.640;9.942;2022-08-07T06:22:36;17.30;85.70
15099;DHT22;33900;53.640;9.942;2022-08-07T06:25:14;17.40;85.80
15099;DHT22;33900;53.640;9.942;2022-08-07T06:27:40;17.50;85.40
15099;DHT22;33900;53.640;9.942;2022-08-07T06:30:06;17.60;85.20
15099;DHT22;33900;53.640;9.942;2022-08-07T06:32:32;17.70;85.00
15099;DHT22;33900;53.640;9.942;2022-08-07T06:34:58;17.70;84.80
15099;DHT22;33900;53.640;9.942;2022-08-07T06:37:24;17.80;84.60
15099;DHT22;33900;53.640;9.942;2022-08-07T06:39:50;17.90;84.40
15099;DHT22;33900;53.640;9.942;2022-08-07T06:42:19;18.00;84.10
15099;DHT22;33900;53.640;9.942;2022-08-07T06:45:00;18.00;83.90
15099;DHT22;33900;53.640;9.942;2022-08-07T06:47:26;18.10;83.60
15099;DHT22;33900;53.640;9.942;2022-08-07T06:49:53;18.20;83.40
15099;DHT22;33900;53.640;9.942;2022-08-07T06:52:20;18.30;83.20
15099;DHT22;33900;53.640;9.942;2022-08-07T06:54:47;18.30;82.70
15099;DHT22;33900;53.640;9.942;2022-08-07T06:57:14;18.40;82.40
15099;DHT22;33900;53.640;9.942;2022-08-07T06:59:41;18.40;82.20
15099;DHT22;33900;53.640;9.942;2022-08-07T07:02:14;18.50;82.10
15099;DHT22;33900;53.640;9.942;2022-08-07T07:04:42;18.60;82.00
15099;DHT22;33900;53.640;9.942;2022-08-07T07:07:07;18.70;81.80
15099;DHT22;33900;53.640;9.942;2022-08-07T07:09:33;18.70;81.40
15099;DHT22;33900;53.640;9.942;2022-08-07T07:12:01;18.80;81.20
15099;DHT22;33900;53.640;9.942;2022-08-07T07:14:30;18.90;80.90
15099;DHT22;33900;53.640;9.942;2022-08-07T07:16:58;19.00;80.40
15099;DHT22;33900;53.640;9.942;2022-08-07T07:19:26;19.10;80.20
15099;DHT22;33900;53.640;9.942;2022-08-07T07:21:53;19.10;79.90
15099;DHT22;33900;53.640;9.942;2022-08-07T07:24:19;19.20;79.40
15099;DHT22;33900;53.640;9.942;2022-08-07T07:26:45;19.30;79.10
15099;DHT22;33900;53.640;9.942;2022-08-07T07:29:12;19.40;78.60
15099;DHT22;33900;53.640;9.942;2022-08-07T07:31:40;19.40;78.30
15099;DHT22;33900;53.640;9.942;2022-08-07T07:34:12;19.50;78.10
15099;DHT22;33900;53.640;9.942;2022-08-07T07:36:53;19.50;77.80
15099;DHT22;33900;53.640;9.942;2022-08-07T07:39:20;19.60;77.50
15099;DHT22;33900;53.640;9.942;2022-08-07T07:41:47;19.70;77.10
15099;DHT22;33900;53.640;9.942;2022-08-07T07:44:14;19.80;77.00
15099;DHT22;33900;53.640;9.942;2022-08-07T07:46:40;19.80;75.80
15099;DHT22;33900;53.640;9.942;2022-08-07T07:49:07;19.90;75.50
15099;DHT22;33900;53.640;9.942;2022-08-07T07:51:33;19.90;74.30
15099;DHT22;33900;53.640;9.942;2022-08-07T07:54:00;19.90;72.70
15099;DHT22;33900;53.640;9.942;2022-08-07T07:56:26;20.00;73.30
15099;DHT22;33900;53.640;9.942;2022-08-07T07:58:52;20.00;73.60
15099;DHT22;33900;53.640;9.942;2022-08-07T08:01:18;20.10;72.50
15099;DHT22;33900;53.640;9.942;2022-08-07T08:03:45;20.20;72.90
15099;DHT22;33900;53.640;9.942;2022-08-07T08:06:11;20.30;72.80
15099;DHT22;33900;53.640;9.942;2022-08-07T08:08:37;20.40;71.60
15099;DHT22;33900;53.640;9.942;2022-08-07T08:11:09;20.40;71.50
15099;DHT22;33900;53.640;9.942;2022-08-07T08:13:46;20.50;71.10
15099;DHT22;33900;53.640;9.942;2022-08-07T08:16:13;20.60;69.30
15099;DHT22;33900;53.640;9.942;2022-08-07T08:18:41;20.70;68.70
15099;DHT22;33900;53.640;9.942;2022-08-07T08:21:08;20.80;67.10
15099;DHT22;33900;53.640;9.942;2022-08-07T08:23:53;20.80;67.50
15099;DHT22;33900;53.640;9.942;2022-08-07T08:26:38;20.90;67.70
15099;DHT22;33900;53.640;9.942;2022-08-07T08:29:22;21.10;67.80
15099;DHT22;33900;53.640;9.942;2022-08-07T08:31:48;21.20;66.10
15099;DHT22;33900;53.640;9.942;2022-08-07T08:34:15;21.30;66.70
15099;DHT22;33900;53.640;9.942;2022-08-07T08:36:42;21.40;66.60
15099;DHT22;33900;53.640;9.942;2022-08-07T08:39:08;21.60;66.40
15099;DHT22;33900;53.640;9.942;2022-08-07T08:44:16;21.80;62.90
15099;DHT22;33900;53.640;9.942;2022-08-07T08:46:54;22.00;62.50
15099;DHT22;33900;53.640;9.942;2022-08-07T08:49:25;22.10;60.90
15099;DHT22;33900;53.640;9.942;2022-08-07T08:51:54;22.30;61.90
15099;DHT22;33900;53.640;9.942;2022-08-07T08:54:29;22.40;62.60
15099;DHT22;33900;53.640;9.942;2022-08-07T08:56:56;22.60;61.70
15099;DHT22;33900;53.640;9.942;2022-08-07T08:59:24;22.80;61.70
15099;DHT22;33900;53.640;9.942;2022-08-07T09:04:28;23.10;59.30
15099;DHT22;33900;53.640;9.942;2022-08-07T09:07:09;23.20;57.80
15099;DHT22;33900;53.640;9.942;2022-08-07T09:12:13;23.60;56.90
15099;DHT22;33900;53.640;9.942;2022-08-07T09:27:41;24.00;54.50
15099;DHT22;33900;53.640;9.942;2022-08-07T09:30:08;24.00;54.60
15099;DHT22;33900;53.640;9.942;2022-08-07T09:35:20;23.80;53.80
15099;DHT22;33900;53.640;9.942;2022-08-07T09:37:57;23.70;53.70
15099;DHT22;33900;53.640;9.942;2022-08-07T09:44:12;23.50;54.10
15099;DHT22;33900;53.640;9.942;2022-08-07T09:53:48;23.20;54.80
15099;DHT22;33900;53.640;9.942;2022-08-07T10:01:29;23.10;55.30
15099;DHT22;33900;53.640;9.942;2022-08-07T10:11:53;22.90;54.30
15099;DHT22;33900;53.640;9.942;2022-08-07T10:27:18;22.70;54.90
15099;DHT22;33900;53.640;9.942;2022-08-07T10:30:02;22.60;55.00
15099;DHT22;33900;53.640;9.942;2022-08-07T10:35:09;22.70;55.30
15099;DHT22;33900;53.640;9.942;2022-08-07T10:40:20;22.60;54.90
15099;DHT22;33900;53.640;9.942;2022-08-07T10:50:33;22.60;55.40
15099;DHT22;33900;53.640;9.942;2022-08-07T10:53:05;22.60;55.50
15099;DHT22;33900;53.640;9.942;2022-08-07T11:00:28;22.60;55.70
15099;DHT22;33900;53.640;9.942;2022-08-07T11:07:58;22.70;55.60
15099;DHT22;33900;53.640;9.942;2022-08-07T11:13:03;22.70;55.30
15099;DHT22;33900;53.640;9.942;2022-08-07T11:15:33;22.70;55.30
15099;DHT22;33900;53.640;9.942;2022-08-07T11:18:05;22.70;54.70
15099;DHT22;33900;53.640;9.942;2022-08-07T11:20:36;22.70;54.50
15099;DHT22;33900;53.640;9.942;2022-08-07T11:29:21;22.80;55.10
15099;DHT22;33900;53.640;9.942;2022-08-07T11:39:38;22.90;54.30
15099;DHT22;33900;53.640;9.942;2022-08-07T11:42:17;22.80;54.40
15099;DHT22;33900;53.640;9.942;2022-08-07T11:44:52;22.90;54.60
15099;DHT22;33900;53.640;9.942;2022-08-07T11:48:21;22.90;54.20
15099;DHT22;33900;53.640;9.942;2022-08-07T12:00:41;22.80;53.00
15099;DHT22;33900;53.640;9.942;2022-08-07T12:03:14;22.80;53.30
15099;DHT22;33900;53.640;9.942;2022-08-07T12:08:36;23.00;53.90
15099;DHT22;33900;53.640;9.942;2022-08-07T12:11:04;23.20;53.30
15099;DHT22;33900;53.640;9.942;2022-08-07T12:16:09;23.40;52.10
15099;DHT22;33900;53.640;9.942;2022-08-07T12:18:47;23.40;51.70
15099;DHT22;33900;53.640;9.942;2022-08-07T12:26:39;23.30;52.00
15099;DHT22;33900;53.640;9.942;2022-08-07T12:29:15;23.30;52.30
15099;DHT22;33900;53.640;9.942;2022-08-07T12:31:47;23.30;52.90
15099;DHT22;33900;53.640;9.942;2022-08-07T12:34:14;23.40;53.30
15099;DHT22;33900;53.640;9.942;2022-08-07T12:36:40;23.50;53.20
15099;DHT22;33900;53.640;9.942;2022-08-07T12:39:07;23.60;53.20
15099;DHT22;33900;53.640;9.942;2022-08-07T12:41:33;23.80;51.30
15099;DHT22;33900;53.640;9.942;2022-08-07T12:43:59;23.90;51.10
15099;DHT22;33900;53.640;9.942;2022-08-07T12:48:59;24.00;50.90
15099;DHT22;33900;53.640;9.942;2022-08-07T12:51:36;24.10;51.10
15099;DHT22;33900;53.640;9.942;2022-08-07T12:54:28;24.10;51.30
15099;DHT22;33900;53.640;9.942;2022-08-07T12:56:51;24.20;50.80
15099;DHT22;33900;53.640;9.942;2022-08-07T12:59:19;24.20;50.90
15099;DHT22;33900;53.640;9.942;2022-08-07T13:04:33;24.20;51.00
15099;DHT22;33900;53.640;9.942;2022-08-07T13:13:32;24.30;49.90
15099;DHT22;33900;53.640;9.942;2022-08-07T13:18:12;24.40;50.60
15099;DHT22;33900;53.640;9.942;2022-08-07T13:20:46;24.40;50.70
15099;DHT22;33900;53.640;9.942;2022-08-07T13:23:19;24.50;51.10
15099;DHT22;33900;53.640;9.942;2022-08-07T13:25:55;24.70;51.20
15099;DHT22;33900;53.640;9.942;2022-08-07T13:28:34;24.80;50.80
15099;DHT22;33900;53.640;9.942;2022-08-07T13:31:03;24.90;50.50
15099;DHT22;33900;53.640;9.942;2022-08-07T13:36:04;25.00;49.50
15099;DHT22;33900;53.640;9.942;2022-08-07T13:43:41;25.20;49.70
15099;DHT22;33900;53.640;9.942;2022-08-07T13:46:07;25.40;49.50
15099;DHT22;33900;53.640;9.942;2022-08-07T13:48:36;25.40;49.30
15099;DHT22;33900;53.640;9.942;2022-08-07T13:51:02;25.50;49.40
15099;DHT22;33900;53.640;9.942;2022-08-07T13:53:29;25.70;48.60
15099;DHT22;33900;53.640;9.942;2022-08-07T13:55:55;25.70;48.00
15099;DHT22;33900;53.640;9.942;2022-08-07T13:58:23;25.80;47.00
15099;DHT22;33900;53.640;9.942;2022-08-07T14:01:11;25.90;47.40
15099;DHT22;33900;53.640;9.942;2022-08-07T14:03:38;25.90;47.40
15099;DHT22;33900;53.640;9.942;2022-08-07T14:06:05;26.00;46.90
15099;DHT22;33900;53.640;9.942;2022-08-07T14:08:31;26.10;47.00
15099;DHT22;33900;53.640;9.942;2022-08-07T14:10:58;26.10;46.90
15099;DHT22;33900;53.640;9.942;2022-08-07T14:13:28;26.20;46.20
15099;DHT22;33900;53.640;9.942;2022-08-07T14:15:59;26.20;46.30
15099;DHT22;33900;53.640;9.942;2022-08-07T14:18:30;26.20;45.90
15099;DHT22;33900;53.640;9.942;2022-08-07T14:23:34;26.10;46.30
15099;DHT22;33900;53.640;9.942;2022-08-07T14:26:01;26.00;46.30
15099;DHT22;33900;53.640;9.942;2022-08-07T14:28:29;26.00;46.70
15099;DHT22;33900;53.640;9.942;2022-08-07T14:30:55;25.90;47.20
15099;DHT22;33900;53.640;9.942;2022-08-07T14:33:22;25.90;47.10
15099;DHT22;33900;53.640;9.942;2022-08-07T14:35:47;25.90;47.40
15099;DHT22;33900;53.640;9.942;2022-08-07T14:38:21;25.90;47.70
15099;DHT22;33900;53.640;9.942;2022-08-07T14:40:47;25.90;47.90
15099;DHT22;33900;53.640;9.942;2022-08-07T14:43:19;25.90;47.50
15099;DHT22;33900;53.640;9.942;2022-08-07T14:46:17;25.50;46.50
15099;DHT22;33900;53.640;9.942;2022-08-07T14:48:43;25.70;46.90
15099;DHT22;33900;53.640;9.942;2022-08-07T14:51:11;25.60;47.60
15099;DHT22;33900;53.640;9.942;2022-08-07T14:53:41;25.70;48.00
15099;DHT22;33900;53.640;9.942;2022-08-07T14:56:09;25.50;47.80
15099;DHT22;33900;53.640;9.942;2022-08-07T14:58:37;25.50;47.80
15099;DHT22;33900;53.640;9.942;2022-08-07T15:01:04;25.40;47.00
15099;DHT22;33900;53.640;9.942;2022-08-07T15:03:31;25.30;47.40
15099;DHT22;33900;53.640;9.942;2022-08-07T15:05:57;25.30;47.80
15099;DHT22;33900;53.640;9.942;2022-08-07T15:08:25;25.30;48.20
15099;DHT22;33900;53.640;9.942;2022-08-07T15:11:10;25.30;48.30
15099;DHT22;33900;53.640;9.942;2022-08-07T15:13:39;25.30;48.50
15099;DHT22;33900;53.640;9.942;2022-08-07T15:16:08;25.30;47.70
15099;DHT22;33900;53.640;9.942;2022-08-07T15:18:36;25.30;48.50
15099;DHT22;33900;53.640;9.942;2022-08-07T15:21:03;25.20;48.10
15099;DHT22;33900;53.640;9.942;2022-08-07T15:23:31;25.20;48.20
15099;DHT22;33900;53.640;9.942;2022-08-07T15:25:57;25.20;48.20
15099;DHT22;33900;53.640;9.942;2022-08-07T15:28:24;25.20;48.00
15099;DHT22;33900;53.640;9.942;2022-08-07T15:31:02;25.20;47.80
15099;DHT22;33900;53.640;9.942;2022-08-07T15:33:28;25.20;48.20
15099;DHT22;33900;53.640;9.942;2022-08-07T15:35:54;25.20;48.20
15099;DHT22;33900;53.640;9.942;2022-08-07T15:38:27;25.40;48.50
15099;DHT22;33900;53.640;9.942;2022-08-07T15:40:57;25.30;48.80
15099;DHT22;33900;53.640;9.942;2022-08-07T15:43:26;25.40;48.10
15099;DHT22;33900;53.640;9.942;2022-08-07T15:45:55;25.40;47.60
15099;DHT22;33900;53.640;9.942;2022-08-07T15:48:22;25.40;47.70
15099;DHT22;33900;53.640;9.942;2022-08-07T15:50:49;25.40;47.80
15099;DHT22;33900;53.640;9.942;2022-08-07T15:53:23;25.40;47.90
15099;DHT22;33900;53.640;9.942;2022-08-07T15:55:51;25.40;47.80
15099;DHT22;33900;53.640;9.942;2022-08-07T15:58:17;25.50;47.70
15099;DHT22;33900;53.640;9.942;2022-08-07T16:00:45;25.40;47.80
15099;DHT22;33900;53.640;9.942;2022-08-07T16:03:13;25.60;47.60
15099;DHT22;33900;53.640;9.942;2022-08-07T16:05:45;25.60;47.60
15099;DHT22;33900;53.640;9.942;2022-08-07T16:08:13;25.70;47.90
15099;DHT22;33900;53.640;9.942;2022-08-07T16:10:40;25.70;47.90
15099;DHT22;33900;53.640;9.942;2022-08-07T16:13:25;25.70;48.00
15099;DHT22;33900;53.640;9.942;2022-08-07T16:18:23;25.60;48.10
15099;DHT22;33900;53.640;9.942;2022-08-07T16:34:06;25.60;47.80
15099;DHT22;33900;53.640;9.942;2022-08-07T16:39:15;25.60;48.10
15099;DHT22;33900;53.640;9.942;2022-08-07T16:47:24;25.50;48.00
15099;DHT22;33900;53.640;9.942;2022-08-07T16:50:06;25.40;47.90
15099;DHT22;33900;53.640;9.942;2022-08-07T17:00:14;25.20;48.10
15099;DHT22;33900;53.640;9.942;2022-08-07T17:07:36;25.10;48.80
15099;DHT22;33900;53.640;9.942;2022-08-07T17:10:12;25.10;48.80
15099;DHT22;33900;53.640;9.942;2022-08-07T17:12:45;25.00;48.70
15099;DHT22;33900;53.640;9.942;2022-08-07T17:15:20;25.00;49.10
15099;DHT22;33900;53.640;9.942;2022-08-07T17:17:54;24.90;49.20
15099;DHT22;33900;53.640;9.942;2022-08-07T17:20:30;24.90;49.20
15099;DHT22;33900;53.640;9.942;2022-08-07T17:23:04;24.90;49.20
15099;DHT22;33900;53.640;9.942;2022-08-07T17:31:14;24.70;49.70
15099;DHT22;33900;53.640;9.942;2022-08-07T17:33:49;24.60;49.70
15099;DHT22;33900;53.640;9.942;2022-08-07T17:36:16;24.60;49.70
15099;DHT22;33900;53.640;9.942;2022-08-07T17:41:11;24.40;50.00
15099;DHT22;33900;53.640;9.942;2022-08-07T17:43:44;24.40;50.10
15099;DHT22;33900;53.640;9.942;2022-08-07T17:46:13;24.30;50.20
15099;DHT22;33900;53.640;9.942;2022-08-07T17:51:30;24.20;50.60
15099;DHT22;33900;53.640;9.942;2022-08-07T17:54:32;24.10;50.90
15099;DHT22;33900;53.640;9.942;2022-08-07T17:57:09;24.00;51.20
15099;DHT22;33900;53.640;9.942;2022-08-07T17:59:41;23.90;51.60
15099;DHT22;33900;53.640;9.942;2022-08-07T18:07:30;23.70;52.10
15099;DHT22;33900;53.640;9.942;2022-08-07T18:10:02;23.70;52.20
15099;DHT22;33900;53.640;9.942;2022-08-07T18:15:00;23.60;52.60
15099;DHT22;33900;53.640;9.942;2022-08-07T18:20:09;23.50;52.90
15099;DHT22;33900;53.640;9.942;2022-08-07T18:25:03;23.40;53.30
15099;DHT22;33900;53.640;9.942;2022-08-07T18:27:46;23.40;53.40
15099;DHT22;33900;53.640;9.942;2022-08-07T18:30:13;23.30;54.20
15099;DHT22;33900;53.640;9.942;2022-08-07T18:45:53;23.00;54.90
15099;DHT22;33900;53.640;9.942;2022-08-07T18:48:41;23.00;55.10
15099;DHT22;33900;53.640;9.942;2022-08-07T18:53:42;22.90;55.40
15099;DHT22;33900;53.640;9.942;2022-08-07T18:56:13;22.90;55.70
15099;DHT22;33900;53.640;9.942;2022-08-07T19:06:46;22.70;56.60
15099;DHT22;33900;53.640;9.942;2022-08-07T19:09:48;22.60;56.70
15099;DHT22;33900;53.640;9.942;2022-08-07T19:12:10;22.50;56.80
15099;DHT22;33900;53.640;9.942;2022-08-07T19:17:02;22.30;57.10
15099;DHT22;33900;53.640;9.942;2022-08-07T19:22:16;22.30;57.70
15099;DHT22;33900;53.640;9.942;2022-08-07T19:24:43;22.30;57.90
15099;DHT22;33900;53.640;9.942;2022-08-07T19:27:18;22.20;58.00
15099;DHT22;33900;53.640;9.942;2022-08-07T19:29:45;22.10;57.90
15099;DHT22;33900;53.640;9.942;2022-08-07T19:32:13;22.10;58.00
15099;DHT22;33900;53.640;9.942;2022-08-07T19:34:51;22.00;58.20
15099;DHT22;33900;53.640;9.942;2022-08-07T19:37:18;22.00;58.50
15099;DHT22;33900;53.640;9.942;2022-08-07T19:39:46;21.90;58.70
15099;DHT22;33900;53.640;9.942;2022-08-07T19:42:12;21.80;59.60
15099;DHT22;33900;53.640;9.942;2022-08-07T19:44:40;21.80;59.20
15099;DHT22;33900;53.640;9.942;2022-08-07T19:47:10;21.70;59.40
15099;DHT22;33900;53.640;9.942;2022-08-07T19:49:43;21.70;59.70